PWSweather.com
Personal Weather Stations
Station Observations
FAUSKE
Nordland, Norway, FauskeNO 8200

Nordland, NorwayFauskeNO 8200

Lat: 67.2607586, Lon: 15.4114204

Elevation: 40

Station Type: Davis Vantage PRO2

http://www.bjornli.net/weather.html

Latest ConditionsUpdated 6:40:09 AM GMT+01:01 Sunday, Nov 23, 2014
Currently Today's Max Today's Min Today's Average
Temperature 37.8°F3.2°C 38.4°F3.6°C 33.1°F0.6°C 37.4°F3.0°C
Dew Point 30.3°F-0.9°C 32.8°F0.4°C 30.2°F-1.0°C 31.3°F-0.4°C
Winds 10.0 mph SE16.1 kmh SE 13.0 mph ESE20.9 kmh ESE - 6.9 mph 11.1 kmh
Wind Gusts 16.0 mph25.7 kmh 18.0 mph29.0 kmh - -
Humidity 74% 94% 74% 79%
Pressure 30.22 in1023.4 mb 30.26 in1024.7 mb 30.22 in1023.4 mb -
Hour Temp Dew Point Humidity Winds Wind Gusts Pressure Precip Precip Rate Daily Precip Total
06:40 AM 37.8°F3.2°C 30.3°F-0.9°C 74% 10.0 mph SE16.1 kmh SE 16.0 mph25.7 kmh 30.22 in1023.4 mb 0.00 in0.0 mm 0.00 in/hr0.0 mm/hr 0.00 in0.0 mm
06:30 AM 37.9°F3.3°C 30.4°F-0.9°C 74% 11.0 mph SE17.7 kmh SE 12.0 mph19.3 kmh 30.22 in1023.4 mb 0.00 in0.0 mm 0.00 in/hr0.0 mm/hr 0.00 in0.0 mm
06:10 AM 37.3°F2.9°C 30.4°F-0.9°C 76% 6.0 mph SE9.7 kmh SE 14.0 mph22.5 kmh 30.22 in1023.4 mb 0.00 in0.0 mm 0.00 in/hr0.0 mm/hr 0.00 in0.0 mm
06:00 AM 37.4°F3.0°C 30.2°F-1.0°C 75% 7.0 mph ESE11.3 kmh ESE 9.0 mph14.5 kmh 30.22 in1023.4 mb 0.00 in0.0 mm 0.00 in/hr0.0 mm/hr 0.00 in0.0 mm
05:40 AM 37.0°F2.8°C 30.5°F-0.8°C 77% 5.0 mph SE8.0 kmh SE 5.0 mph8.0 kmh 30.23 in1023.7 mb 0.00 in0.0 mm 0.00 in/hr0.0 mm/hr 0.00 in0.0 mm
05:30 AM 37.4°F3.0°C 30.2°F-1.0°C 75% 3.0 mph SE4.8 kmh SE 3.0 mph4.8 kmh 30.23 in1023.7 mb 0.00 in0.0 mm 0.00 in/hr0.0 mm/hr 0.00 in0.0 mm
05:10 AM 37.7°F3.2°C 30.5°F-0.8°C 75% 7.0 mph SE11.3 kmh SE 10.0 mph16.1 kmh 30.23 in1023.7 mb 0.00 in0.0 mm 0.00 in/hr0.0 mm/hr 0.00 in0.0 mm
05:00 AM 38.1°F3.4°C 30.9°F-0.6°C 75% 10.0 mph SE16.1 kmh SE 10.0 mph16.1 kmh 30.24 in1024.0 mb 0.00 in0.0 mm 0.00 in/hr0.0 mm/hr 0.00 in0.0 mm
04:40 AM 38.1°F3.4°C 30.9°F-0.6°C 75% 13.0 mph ESE20.9 kmh ESE 18.0 mph29.0 kmh 30.24 in1024.0 mb 0.00 in0.0 mm 0.00 in/hr0.0 mm/hr 0.00 in0.0 mm
04:30 AM 38.4°F3.6°C 31.2°F-0.4°C 75% 12.0 mph SE19.3 kmh SE 14.0 mph22.5 kmh 30.24 in1024.0 mb 0.00 in0.0 mm 0.00 in/hr0.0 mm/hr 0.00 in0.0 mm
04:10 AM 38.1°F3.4°C 31.2°F-0.4°C 76% 6.0 mph SE9.7 kmh SE 16.0 mph25.7 kmh 30.24 in1024.0 mb 0.00 in0.0 mm 0.00 in/hr0.0 mm/hr 0.00 in0.0 mm
04:00 AM 37.9°F3.3°C 31.4°F-0.3°C 77% 5.0 mph ESE8.0 kmh ESE 7.0 mph11.3 kmh 30.24 in1024.0 mb 0.00 in0.0 mm 0.00 in/hr0.0 mm/hr 0.00 in0.0 mm
03:40 AM 37.6°F3.1°C 31.1°F-0.5°C 77% 5.0 mph SSE8.0 kmh SSE 16.0 mph25.7 kmh 30.24 in1024.0 mb 0.00 in0.0 mm 0.00 in/hr0.0 mm/hr 0.00 in0.0 mm
03:30 AM 37.7°F3.2°C 31.2°F-0.4°C 77% 2.0 mph SE3.2 kmh SE 2.0 mph3.2 kmh 30.24 in1024.0 mb 0.00 in0.0 mm 0.00 in/hr0.0 mm/hr 0.00 in0.0 mm
03:10 AM 37.5°F3.1°C 31.3°F-0.4°C 78% 4.0 mph SE6.4 kmh SE 11.0 mph17.7 kmh 30.25 in1024.4 mb 0.00 in0.0 mm 0.00 in/hr0.0 mm/hr 0.00 in0.0 mm
03:00 AM 37.6°F3.1°C 31.4°F-0.3°C 78% 5.0 mph SE8.0 kmh SE 9.0 mph14.5 kmh 30.25 in1024.4 mb 0.00 in0.0 mm 0.00 in/hr0.0 mm/hr 0.00 in0.0 mm
02:40 AM 37.8°F3.2°C 31.6°F-0.2°C 78% 11.0 mph SE17.7 kmh SE 12.0 mph19.3 kmh 30.25 in1024.4 mb 0.00 in0.0 mm 0.00 in/hr0.0 mm/hr 0.00 in0.0 mm
02:30 AM 37.8°F3.2°C 31.6°F-0.2°C 78% 5.0 mph SE8.0 kmh SE 11.0 mph17.7 kmh 30.25 in1024.4 mb 0.00 in0.0 mm 0.00 in/hr0.0 mm/hr 0.00 in0.0 mm
02:10 AM 37.8°F3.2°C 31.6°F-0.2°C 78% 6.0 mph SE9.7 kmh SE 14.0 mph22.5 kmh 30.25 in1024.4 mb 0.00 in0.0 mm 0.00 in/hr0.0 mm/hr 0.00 in0.0 mm
02:00 AM 37.8°F3.2°C 31.9°F-0.1°C 79% 5.0 mph SE8.0 kmh SE 7.0 mph11.3 kmh 30.25 in1024.4 mb 0.00 in0.0 mm 0.00 in/hr0.0 mm/hr 0.00 in0.0 mm
01:40 AM 37.6°F3.1°C 31.7°F-0.2°C 79% 9.0 mph SE14.5 kmh SE 13.0 mph20.9 kmh 30.25 in1024.4 mb 0.00 in0.0 mm 0.00 in/hr0.0 mm/hr 0.00 in0.0 mm
01:30 AM 37.6°F3.1°C 32.0°F0.0°C 80% 2.0 mph SE3.2 kmh SE 4.0 mph6.4 kmh 30.25 in1024.4 mb 0.00 in0.0 mm 0.00 in/hr0.0 mm/hr 0.00 in0.0 mm
01:10 AM 37.6°F3.1°C 32.0°F0.0°C 80% 9.0 mph ESE14.5 kmh ESE 14.0 mph22.5 kmh 30.25 in1024.4 mb 0.00 in0.0 mm 0.00 in/hr0.0 mm/hr 0.00 in0.0 mm
01:00 AM 37.6°F3.1°C 32.3°F0.2°C 81% 5.0 mph ESE8.0 kmh ESE 11.0 mph17.7 kmh 30.25 in1024.4 mb 0.00 in0.0 mm 0.00 in/hr0.0 mm/hr 0.00 in0.0 mm
12:40 AM 37.2°F2.9°C 32.5°F0.3°C 83% 12.0 mph ESE19.3 kmh ESE 15.0 mph24.1 kmh 30.26 in1024.7 mb 0.00 in0.0 mm 0.00 in/hr0.0 mm/hr 0.00 in0.0 mm
12:30 AM 36.9°F2.7°C 32.8°F0.4°C 85% 5.0 mph SE8.0 kmh SE 12.0 mph19.3 kmh 30.26 in1024.7 mb 0.00 in0.0 mm 0.00 in/hr0.0 mm/hr 0.00 in0.0 mm
12:10 AM 34.9°F1.6°C 32.8°F0.4°C 92% 5.0 mph ESE8.0 kmh ESE 14.0 mph22.5 kmh 30.25 in1024.4 mb 0.00 in0.0 mm 0.00 in/hr0.0 mm/hr 0.00 in0.0 mm
12:00 AM 33.1°F0.6°C 31.6°F-0.2°C 94% 7.0 mph ESE11.3 kmh ESE 7.0 mph11.3 kmh 30.26 in1024.7 mb 0.00 in0.0 mm 0.00 in/hr0.0 mm/hr 0.00 in0.0 mm